sensor_id;sensor_type;location;lat;lon;timestamp;pressure;altitude;pressure_sealevel;temperature;humidity
33422;BME280;19763;55.798;37.782;2023-04-09T00:02:16;149587.50;;;9.11;53.29
33422;BME280;19763;55.798;37.782;2023-04-09T00:04:42;149590.06;;;9.12;53.95
33422;BME280;19763;55.798;37.782;2023-04-09T00:07:08;149600.31;;;9.17;53.68
33422;BME280;19763;55.798;37.782;2023-04-09T00:09:33;149584.91;;;9.10;53.27
33422;BME280;19763;55.798;37.782;2023-04-09T00:11:59;149573.41;;;9.06;54.35
33422;BME280;19763;55.798;37.782;2023-04-09T00:14:24;149575.97;;;9.07;54.84
33422;BME280;19763;55.798;37.782;2023-04-09T00:16:50;149581.06;;;9.09;54.41
33422;BME280;19763;55.798;37.782;2023-04-09T00:19:15;149563.16;;;9.02;53.97
33422;BME280;19763;55.798;37.782;2023-04-09T00:21:41;149563.16;;;9.02;53.78
33422;BME280;19763;55.798;37.782;2023-04-09T00:24:07;149559.31;;;9.00;54.49
33422;BME280;19763;55.798;37.782;2023-04-09T00:26:33;149541.38;;;8.93;55.22
33422;BME280;19763;55.798;37.782;2023-04-09T00:28:58;149541.38;;;8.93;54.94
33422;BME280;19763;55.798;37.782;2023-04-09T00:31:24;149509.38;;;8.80;54.61
33422;BME280;19763;55.798;37.782;2023-04-09T00:33:50;149523.44;;;8.86;54.24
33422;BME280;19763;55.798;37.782;2023-04-09T00:36:16;149488.88;;;8.72;54.92
33422;BME280;19763;55.798;37.782;2023-04-09T00:38:41;149473.50;;;8.66;54.63
33422;BME280;19763;55.798;37.782;2023-04-09T00:41:07;149465.84;;;8.62;55.68
33422;BME280;19763;55.798;37.782;2023-04-09T00:43:33;149492.69;;;8.73;55.27
33422;BME280;19763;55.798;37.782;2023-04-09T00:45:59;149492.69;;;8.73;55.00
33422;BME280;19763;55.798;37.782;2023-04-09T00:48:26;149495.28;;;8.74;55.98
33422;BME280;19763;55.798;37.782;2023-04-09T00:50:52;149492.69;;;8.73;56.46
33422;BME280;19763;55.798;37.782;2023-04-09T00:53:17;149491.44;;;8.73;55.95
33422;BME280;19763;55.798;37.782;2023-04-09T00:55:44;149479.94;;;8.68;55.32
33422;BME280;19763;55.798;37.782;2023-04-09T00:58:10;149488.88;;;8.72;54.80
33422;BME280;19763;55.798;37.782;2023-04-09T01:00:36;149474.78;;;8.66;55.80
33422;BME280;19763;55.798;37.782;2023-04-09T01:03:04;149467.09;;;8.63;56.13
33422;BME280;19763;55.798;37.782;2023-04-09T01:05:38;149450.44;;;8.56;56.23
33422;BME280;19763;55.798;37.782;2023-04-09T01:15:38;149431.25;;;8.49;56.03
33422;BME280;19763;55.798;37.782;2023-04-09T01:18:30;149421.00;;;8.44;57.37
33422;BME280;19763;55.798;37.782;2023-04-09T01:21:05;149399.19;;;8.36;57.12
33422;BME280;19763;55.798;37.782;2023-04-09T01:29:20;149391.53;;;8.33;56.67
33422;BME280;19763;55.798;37.782;2023-04-09T01:31:47;149405.63;;;8.38;56.76
33422;BME280;19763;55.798;37.782;2023-04-09T01:34:15;149367.19;;;8.23;57.33
33422;BME280;19763;55.798;37.782;2023-04-09T01:36:42;149413.28;;;8.41;57.49
33422;BME280;19763;55.798;37.782;2023-04-09T01:39:09;149400.47;;;8.36;57.77
33422;BME280;19763;55.798;37.782;2023-04-09T01:41:36;149391.53;;;8.33;57.48
33422;BME280;19763;55.798;37.782;2023-04-09T01:44:03;149363.38;;;8.21;57.07
33422;BME280;19763;55.798;37.782;2023-04-09T01:46:30;149397.94;;;8.35;56.82
33422;BME280;19763;55.798;37.782;2023-04-09T01:48:58;149412.03;;;8.41;57.54
33422;BME280;19763;55.798;37.782;2023-04-09T01:51:24;149417.13;;;8.43;57.97
33422;BME280;19763;55.798;37.782;2023-04-09T01:53:51;149431.25;;;8.49;57.03
33422;BME280;19763;55.798;37.782;2023-04-09T01:56:17;149424.84;;;8.46;57.31
33422;BME280;19763;55.798;37.782;2023-04-09T01:58:42;149423.59;;;8.45;57.56
33422;BME280;19763;55.798;37.782;2023-04-09T02:03:40;149428.69;;;8.48;57.75
33422;BME280;19763;55.798;37.782;2023-04-09T02:06:38;149426.16;;;8.46;58.64
33422;BME280;19763;55.798;37.782;2023-04-09T02:09:07;149430.00;;;8.48;56.96
33422;BME280;19763;55.798;37.782;2023-04-09T02:11:38;149421.00;;;8.44;56.90
33422;BME280;19763;55.798;37.782;2023-04-09T02:14:06;149412.03;;;8.41;57.97
33422;BME280;19763;55.798;37.782;2023-04-09T02:16:53;149412.03;;;8.41;58.36
33422;BME280;19763;55.798;37.782;2023-04-09T02:19:18;149391.53;;;8.33;58.13
33422;BME280;19763;55.798;37.782;2023-04-09T02:21:45;149424.84;;;8.46;58.56
33422;BME280;19763;55.798;37.782;2023-04-09T02:24:10;149421.00;;;8.44;58.20
33422;BME280;19763;55.798;37.782;2023-04-09T02:26:36;149408.13;;;8.39;58.88
33422;BME280;19763;55.798;37.782;2023-04-09T02:29:02;149408.13;;;8.39;58.12
33422;BME280;19763;55.798;37.782;2023-04-09T02:31:27;149382.53;;;8.29;58.39
33422;BME280;19763;55.798;37.782;2023-04-09T02:33:53;149410.72;;;8.40;58.84
33422;BME280;19763;55.798;37.782;2023-04-09T02:36:19;149382.53;;;8.29;57.95
33422;BME280;19763;55.798;37.782;2023-04-09T02:38:44;149408.13;;;8.39;58.47
33422;BME280;19763;55.798;37.782;2023-04-09T02:41:10;149382.53;;;8.29;58.30
33422;BME280;19763;55.798;37.782;2023-04-09T02:43:36;149368.47;;;8.23;58.94
33422;BME280;19763;55.798;37.782;2023-04-09T02:46:02;149380.03;;;8.28;58.24
33422;BME280;19763;55.798;37.782;2023-04-09T02:48:27;149368.47;;;8.23;58.69
33422;BME280;19763;55.798;37.782;2023-04-09T02:50:53;149381.28;;;8.28;58.32
33422;BME280;19763;55.798;37.782;2023-04-09T02:53:18;149342.88;;;8.13;59.40
33422;BME280;19763;55.798;37.782;2023-04-09T02:55:46;149354.38;;;8.18;58.99
33422;BME280;19763;55.798;37.782;2023-04-09T02:58:11;149369.78;;;8.24;59.55
33422;BME280;19763;55.798;37.782;2023-04-09T03:00:37;149378.72;;;8.27;57.92
33422;BME280;19763;55.798;37.782;2023-04-09T03:03:03;149360.78;;;8.20;58.23
33422;BME280;19763;55.798;37.782;2023-04-09T03:05:28;149380.03;;;8.28;59.48
33422;BME280;19763;55.798;37.782;2023-04-09T03:07:54;149310.88;;;8.00;60.13
33422;BME280;19763;55.798;37.782;2023-04-09T03:10:20;149315.97;;;8.02;60.24
33422;BME280;19763;55.798;37.782;2023-04-09T03:12:45;149364.63;;;8.22;59.16
33422;BME280;19763;55.798;37.782;2023-04-09T03:15:12;149349.28;;;8.16;59.58
33422;BME280;19763;55.798;37.782;2023-04-09T03:17:38;149368.47;;;8.23;58.83
33422;BME280;19763;55.798;37.782;2023-04-09T03:20:05;149408.13;;;8.39;58.37
33422;BME280;19763;55.798;37.782;2023-04-09T03:22:38;149395.38;;;8.34;59.23
33422;BME280;19763;55.798;37.782;2023-04-09T03:25:04;149385.13;;;8.30;59.07
33422;BME280;19763;55.798;37.782;2023-04-09T03:27:31;149364.63;;;8.22;59.14
33422;BME280;19763;55.798;37.782;2023-04-09T03:29:57;149397.94;;;8.35;58.76
33422;BME280;19763;55.798;37.782;2023-04-09T03:32:23;149377.44;;;8.27;59.76
33422;BME280;19763;55.798;37.782;2023-04-09T03:34:48;149403.03;;;8.37;58.56
33422;BME280;19763;55.798;37.782;2023-04-09T03:37:14;149426.16;;;8.46;59.72
33422;BME280;19763;55.798;37.782;2023-04-09T03:39:40;149431.25;;;8.49;58.73
33422;BME280;19763;55.798;37.782;2023-04-09T03:42:06;149444.06;;;8.54;59.70
33422;BME280;19763;55.798;37.782;2023-04-09T03:44:31;149456.84;;;8.59;58.67
33422;BME280;19763;55.798;37.782;2023-04-09T03:46:57;149472.25;;;8.65;58.91
33422;BME280;19763;55.798;37.782;2023-04-09T03:49:22;149464.53;;;8.62;58.14
33422;BME280;19763;55.798;37.782;2023-04-09T03:51:48;149474.78;;;8.66;59.03
33422;BME280;19763;55.798;37.782;2023-04-09T03:54:13;149453.03;;;8.57;58.58
33422;BME280;19763;55.798;37.782;2023-04-09T03:56:39;149478.63;;;8.68;57.76
33422;BME280;19763;55.798;37.782;2023-04-09T03:59:05;149431.25;;;8.49;58.18
33422;BME280;19763;55.798;37.782;2023-04-09T04:01:30;149472.25;;;8.65;59.40
33422;BME280;19763;55.798;37.782;2023-04-09T04:03:56;149438.94;;;8.52;57.86
33422;BME280;19763;55.798;37.782;2023-04-09T04:06:22;149447.91;;;8.55;59.28
33422;BME280;19763;55.798;37.782;2023-04-09T04:08:47;149447.91;;;8.55;59.05
33422;BME280;19763;55.798;37.782;2023-04-09T04:11:13;149472.25;;;8.65;58.68
33422;BME280;19763;55.798;37.782;2023-04-09T04:13:38;149479.94;;;8.68;58.07
33422;BME280;19763;55.798;37.782;2023-04-09T04:16:08;149456.84;;;8.59;58.70
33422;BME280;19763;55.798;37.782;2023-04-09T04:18:34;149447.91;;;8.55;58.32
33422;BME280;19763;55.798;37.782;2023-04-09T04:21:00;149391.53;;;8.33;59.45
33422;BME280;19763;55.798;37.782;2023-04-09T04:23:26;149382.53;;;8.29;59.90
33422;BME280;19763;55.798;37.782;2023-04-09T04:25:51;149400.47;;;8.36;59.21
33422;BME280;19763;55.798;37.782;2023-04-09T04:28:22;149419.69;;;8.44;58.69
33422;BME280;19763;55.798;37.782;2023-04-09T04:30:47;149410.72;;;8.40;58.93
33422;BME280;19763;55.798;37.782;2023-04-09T04:33:13;149440.19;;;8.52;59.23
33422;BME280;19763;55.798;37.782;2023-04-09T04:35:39;149482.44;;;8.69;58.96
33422;BME280;19763;55.798;37.782;2023-04-09T04:38:04;149496.53;;;8.75;59.07
33422;BME280;19763;55.798;37.782;2023-04-09T04:40:30;149454.28;;;8.58;58.14
33422;BME280;19763;55.798;37.782;2023-04-09T04:42:55;149531.13;;;8.89;58.35
33422;BME280;19763;55.798;37.782;2023-04-09T04:45:21;149490.19;;;8.72;58.89
33422;BME280;19763;55.798;37.782;2023-04-09T04:47:46;149491.44;;;8.73;58.94
33422;BME280;19763;55.798;37.782;2023-04-09T04:50:12;149551.63;;;8.97;57.69
33422;BME280;19763;55.798;37.782;2023-04-09T04:52:38;149543.94;;;8.94;57.92
33422;BME280;19763;55.798;37.782;2023-04-09T04:55:05;149533.72;;;8.90;57.42
33422;BME280;19763;55.798;37.782;2023-04-09T04:57:31;149492.69;;;8.73;58.07
33422;BME280;19763;55.798;37.782;2023-04-09T04:59:56;149554.22;;;8.98;58.61
33422;BME280;19763;55.798;37.782;2023-04-09T05:02:22;149551.63;;;8.97;58.27
33422;BME280;19763;55.798;37.782;2023-04-09T05:04:47;149611.84;;;9.21;57.18
33422;BME280;19763;55.798;37.782;2023-04-09T05:07:13;149615.69;;;9.23;57.39
33422;BME280;19763;55.798;37.782;2023-04-09T05:09:38;149622.09;;;9.25;56.99
33422;BME280;19763;55.798;37.782;2023-04-09T05:12:04;149587.50;;;9.11;57.85
33422;BME280;19763;55.798;37.782;2023-04-09T05:14:30;149582.41;;;9.09;58.42
33422;BME280;19763;55.798;37.782;2023-04-09T05:16:55;149590.06;;;9.12;58.05
33422;BME280;19763;55.798;37.782;2023-04-09T05:19:21;149629.78;;;9.28;57.73
33422;BME280;19763;55.798;37.782;2023-04-09T05:21:46;149654.13;;;9.38;57.29
33422;BME280;19763;55.798;37.782;2023-04-09T05:24:12;149672.06;;;9.45;57.31
33422;BME280;19763;55.798;37.782;2023-04-09T05:26:37;149756.63;;;9.79;56.63
33422;BME280;19763;55.798;37.782;2023-04-09T05:29:03;149786.09;;;9.91;56.37
33422;BME280;19763;55.798;37.782;2023-04-09T05:31:29;149814.31;;;10.02;55.50
33422;BME280;19763;55.798;37.782;2023-04-09T05:33:54;149909.25;;;10.41;54.88
33422;BME280;19763;55.798;37.782;2023-04-09T05:36:20;149900.25;;;10.37;54.20
33422;BME280;19763;55.798;37.782;2023-04-09T05:38:46;149913.09;;;10.42;54.54
33422;BME280;19763;55.798;37.782;2023-04-09T05:41:12;149974.63;;;10.67;54.01
33422;BME280;19763;55.798;37.782;2023-04-09T05:43:38;149982.31;;;10.70;54.44
33422;BME280;19763;55.798;37.782;2023-04-09T05:46:04;150014.38;;;10.83;53.79
33422;BME280;19763;55.798;37.782;2023-04-09T05:48:29;149927.19;;;10.48;53.94
33422;BME280;19763;55.798;37.782;2023-04-09T05:50:55;149915.66;;;10.43;53.98
33422;BME280;19763;55.798;37.782;2023-04-09T05:53:21;149922.03;;;10.46;53.96
33422;BME280;19763;55.798;37.782;2023-04-09T05:55:47;149931.03;;;10.49;54.66
33422;BME280;19763;55.798;37.782;2023-04-09T05:58:16;149868.16;;;10.24;54.18
33422;BME280;19763;55.798;37.782;2023-04-09T06:00:43;149931.03;;;10.49;54.81
33422;BME280;19763;55.798;37.782;2023-04-09T06:03:09;149957.94;;;10.60;53.87
33422;BME280;19763;55.798;37.782;2023-04-09T06:05:34;149892.56;;;10.34;54.35
33422;BME280;19763;55.798;37.782;2023-04-09T06:08:00;149893.81;;;10.34;54.54
33422;BME280;19763;55.798;37.782;2023-04-09T06:10:26;149854.03;;;10.18;55.06
33422;BME280;19763;55.798;37.782;2023-04-09T06:12:52;149918.19;;;10.44;54.65
33422;BME280;19763;55.798;37.782;2023-04-09T06:15:18;149955.41;;;10.59;53.81
33422;BME280;19763;55.798;37.782;2023-04-09T06:17:44;149993.91;;;10.75;53.31
33422;BME280;19763;55.798;37.782;2023-04-09T06:20:10;150061.88;;;11.02;52.91
33422;BME280;19763;55.798;37.782;2023-04-09T06:22:36;150045.19;;;10.95;53.36
33422;BME280;19763;55.798;37.782;2023-04-09T06:25:02;150088.78;;;11.13;53.12
33422;BME280;19763;55.798;37.782;2023-04-09T06:27:27;150072.13;;;11.06;53.12
33422;BME280;19763;55.798;37.782;2023-04-09T06:29:53;150052.88;;;10.98;53.17
33422;BME280;19763;55.798;37.782;2023-04-09T06:32:19;150023.38;;;10.86;53.01
33422;BME280;19763;55.798;37.782;2023-04-09T06:34:44;150011.84;;;10.82;53.89
33422;BME280;19763;55.798;37.782;2023-04-09T06:37:10;150066.97;;;11.04;53.40
33422;BME280;19763;55.798;37.782;2023-04-09T06:39:36;150115.75;;;11.23;53.30
33422;BME280;19763;55.798;37.782;2023-04-09T06:42:01;150082.41;;;11.10;52.48
33422;BME280;19763;55.798;37.782;2023-04-09T06:44:29;150088.78;;;11.13;52.25
33422;BME280;19763;55.798;37.782;2023-04-09T06:46:55;150123.44;;;11.27;52.22
33422;BME280;19763;55.798;37.782;2023-04-09T06:49:20;150155.53;;;11.39;52.23
33422;BME280;19763;55.798;37.782;2023-04-09T06:51:46;150142.72;;;11.34;51.86
33422;BME280;19763;55.798;37.782;2023-04-09T06:54:12;150177.31;;;11.48;51.77
33422;BME280;19763;55.798;37.782;2023-04-09T06:56:37;150328.88;;;12.09;49.85
33422;BME280;19763;55.798;37.782;2023-04-09T06:59:03;150504.78;;;12.80;49.70
33422;BME280;19763;55.798;37.782;2023-04-09T07:01:28;150614.00;;;13.23;47.15
33422;BME280;19763;55.798;37.782;2023-04-09T07:03:54;150745.16;;;13.76;47.27
33422;BME280;19763;55.798;37.782;2023-04-09T07:06:20;150858.31;;;14.21;45.68
33422;BME280;19763;55.798;37.782;2023-04-09T07:08:45;150961.25;;;14.62;43.97
33422;BME280;19763;55.798;37.782;2023-04-09T07:11:11;151079.63;;;15.10;43.79
33422;BME280;19763;55.798;37.782;2023-04-09T07:13:37;151035.88;;;14.92;43.77
33422;BME280;19763;55.798;37.782;2023-04-09T07:16:02;151048.72;;;14.97;43.00
33422;BME280;19763;55.798;37.782;2023-04-09T07:18:29;151221.19;;;15.66;41.47
33422;BME280;19763;55.798;37.782;2023-04-09T07:20:55;151316.50;;;16.04;41.09
33422;BME280;19763;55.798;37.782;2023-04-09T07:23:20;151245.66;;;15.76;41.43
33422;BME280;19763;55.798;37.782;2023-04-09T07:25:46;151053.88;;;14.99;41.22
33422;BME280;19763;55.798;37.782;2023-04-09T07:28:12;151342.28;;;16.15;40.07
33422;BME280;19763;55.798;37.782;2023-04-09T07:30:39;151100.22;;;15.18;41.58
33422;BME280;19763;55.798;37.782;2023-04-09T07:33:04;151075.75;;;15.08;40.91
33422;BME280;19763;55.798;37.782;2023-04-09T07:35:30;151017.88;;;14.85;41.78
33422;BME280;19763;55.798;37.782;2023-04-09T07:37:57;151089.91;;;15.14;41.58
33422;BME280;19763;55.798;37.782;2023-04-09T07:40:23;151101.47;;;15.18;40.29
33422;BME280;19763;55.798;37.782;2023-04-09T07:42:48;151097.63;;;15.17;40.02
33422;BME280;19763;55.798;37.782;2023-04-09T07:45:15;151023.00;;;14.87;39.91
33422;BME280;19763;55.798;37.782;2023-04-09T07:47:41;151053.88;;;14.99;39.90
33422;BME280;19763;55.798;37.782;2023-04-09T07:50:07;151056.44;;;15.00;40.33
33422;BME280;19763;55.798;37.782;2023-04-09T07:52:33;151084.72;;;15.12;39.24
33422;BME280;19763;55.798;37.782;2023-04-09T07:54:58;151023.00;;;14.87;39.81
33422;BME280;19763;55.798;37.782;2023-04-09T07:57:24;150989.56;;;14.74;40.09
33422;BME280;19763;55.798;37.782;2023-04-09T07:59:52;151041.00;;;14.94;39.84
33422;BME280;19763;55.798;37.782;2023-04-09T08:02:17;151064.19;;;15.04;38.78
33422;BME280;19763;55.798;37.782;2023-04-09T08:04:43;151201.88;;;15.59;39.77
33422;BME280;19763;55.798;37.782;2023-04-09T08:07:08;151187.69;;;15.53;39.43
33422;BME280;19763;55.798;37.782;2023-04-09T08:09:34;151205.72;;;15.60;38.92
33422;BME280;19763;55.798;37.782;2023-04-09T08:12:00;151196.75;;;15.57;39.13
33422;BME280;19763;55.798;37.782;2023-04-09T08:14:25;151265.00;;;15.84;39.34
33422;BME280;19763;55.798;37.782;2023-04-09T08:16:51;151208.31;;;15.61;39.40
33422;BME280;19763;55.798;37.782;2023-04-09T08:19:17;151209.56;;;15.62;39.72
33422;BME280;19763;55.798;37.782;2023-04-09T08:21:44;151127.22;;;15.29;39.79
33422;BME280;19763;55.798;37.782;2023-04-09T08:24:13;150909.72;;;14.42;41.00
33422;BME280;19763;55.798;37.782;2023-04-09T08:26:39;151134.91;;;15.32;40.32
33422;BME280;19763;55.798;37.782;2023-04-09T08:29:06;151105.34;;;15.20;40.00
33422;BME280;19763;55.798;37.782;2023-04-09T08:31:32;151164.56;;;15.44;39.17
33422;BME280;19763;55.798;37.782;2023-04-09T08:33:57;151210.91;;;15.62;40.00
33422;BME280;19763;55.798;37.782;2023-04-09T08:36:23;151285.63;;;15.92;38.54
33422;BME280;19763;55.798;37.782;2023-04-09T08:38:48;151440.13;;;16.54;38.21
33422;BME280;19763;55.798;37.782;2023-04-09T08:41:22;151462.03;;;16.63;37.31
33422;BME280;19763;55.798;37.782;2023-04-09T08:43:49;151450.44;;;16.58;37.92
33422;BME280;19763;55.798;37.782;2023-04-09T08:46:16;151319.06;;;16.05;38.79
33422;BME280;19763;55.798;37.782;2023-04-09T08:48:46;151351.28;;;16.18;38.60
33422;BME280;19763;55.798;37.782;2023-04-09T08:51:17;151343.53;;;16.15;38.35
33422;BME280;19763;55.798;37.782;2023-04-09T08:54:04;151227.59;;;15.69;38.17
33422;BME280;19763;55.798;37.782;2023-04-09T08:56:29;151167.09;;;15.45;39.79
33422;BME280;19763;55.798;37.782;2023-04-09T08:58:55;151295.91;;;15.96;38.97
33422;BME280;19763;55.798;37.782;2023-04-09T09:01:28;151419.53;;;16.46;38.99
33422;BME280;19763;55.798;37.782;2023-04-09T09:04:02;151419.53;;;16.46;38.15
33422;BME280;19763;55.798;37.782;2023-04-09T09:06:30;151459.50;;;16.62;36.77
33422;BME280;19763;55.798;37.782;2023-04-09T09:09:07;151489.09;;;16.73;36.49
33422;BME280;19763;55.798;37.782;2023-04-09T09:11:35;151541.97;;;16.95;36.63
33422;BME280;19763;55.798;37.782;2023-04-09T09:14:06;151532.94;;;16.91;36.37
33422;BME280;19763;55.798;37.782;2023-04-09T09:16:37;151606.41;;;17.20;37.78
33422;BME280;19763;55.798;37.782;2023-04-09T09:19:30;151567.75;;;17.05;36.75
33422;BME280;19763;55.798;37.782;2023-04-09T09:21:59;151552.28;;;16.99;37.39
33422;BME280;19763;55.798;37.782;2023-04-09T09:24:26;151550.97;;;16.98;36.41
33422;BME280;19763;55.798;37.782;2023-04-09T09:26:52;151410.53;;;16.42;37.23
33422;BME280;19763;55.798;37.782;2023-04-09T09:29:21;151384.78;;;16.32;38.28
33422;BME280;19763;55.798;37.782;2023-04-09T09:31:49;151289.47;;;15.94;37.48
33422;BME280;19763;55.798;37.782;2023-04-09T09:34:16;151115.63;;;15.24;38.75
33422;BME280;19763;55.798;37.782;2023-04-09T09:36:43;151307.50;;;16.01;38.73
33422;BME280;19763;55.798;37.782;2023-04-09T09:39:10;151298.47;;;15.97;37.99
33422;BME280;19763;55.798;37.782;2023-04-09T09:41:38;151373.16;;;16.27;37.68
33422;BME280;19763;55.798;37.782;2023-04-09T09:44:06;151368.03;;;16.25;36.78
33422;BME280;19763;55.798;37.782;2023-04-09T09:46:36;151163.25;;;15.43;38.32
33422;BME280;19763;55.798;37.782;2023-04-09T09:49:04;151200.59;;;15.58;38.01
33422;BME280;19763;55.798;37.782;2023-04-09T09:51:31;151213.44;;;15.63;38.72
33422;BME280;19763;55.798;37.782;2023-04-09T09:53:57;151209.56;;;15.62;37.86
33422;BME280;19763;55.798;37.782;2023-04-09T09:56:36;151232.78;;;15.71;38.41
33422;BME280;19763;55.798;37.782;2023-04-09T10:01:38;151222.47;;;15.67;38.25
33422;BME280;19763;55.798;37.782;2023-04-09T10:04:05;151301.06;;;15.98;38.60
33422;BME280;19763;55.798;37.782;2023-04-09T10:06:39;151358.97;;;16.21;37.85
33422;BME280;19763;55.798;37.782;2023-04-09T10:09:07;151406.66;;;16.41;38.06
33422;BME280;19763;55.798;37.782;2023-04-09T10:11:35;151416.97;;;16.45;37.29
33422;BME280;19763;55.798;37.782;2023-04-09T10:14:01;151375.75;;;16.28;36.96
33422;BME280;19763;55.798;37.782;2023-04-09T10:16:27;151409.22;;;16.42;36.92
33422;BME280;19763;55.798;37.782;2023-04-09T10:18:54;151322.94;;;16.07;36.78
33422;BME280;19763;55.798;37.782;2023-04-09T10:21:57;151464.63;;;16.64;36.66
33422;BME280;19763;55.798;37.782;2023-04-09T10:24:17;151375.75;;;16.28;36.63
33422;BME280;19763;55.798;37.782;2023-04-09T10:26:43;151379.59;;;16.30;36.69
33422;BME280;19763;55.798;37.782;2023-04-09T10:29:14;151362.84;;;16.23;36.66
33422;BME280;19763;55.798;37.782;2023-04-09T10:31:53;151333.25;;;16.11;37.05
33422;BME280;19763;55.798;37.782;2023-04-09T10:34:22;151419.53;;;16.46;36.68
33422;BME280;19763;55.798;37.782;2023-04-09T10:36:57;151481.38;;;16.70;36.25
33422;BME280;19763;55.798;37.782;2023-04-09T10:39:27;151472.34;;;16.67;37.01
33422;BME280;19763;55.798;37.782;2023-04-09T10:41:55;151231.50;;;15.70;36.60
33422;BME280;19763;55.798;37.782;2023-04-09T10:44:24;151285.63;;;15.92;36.71
33422;BME280;19763;55.798;37.782;2023-04-09T10:46:54;151294.59;;;15.96;37.37
33422;BME280;19763;55.798;37.782;2023-04-09T10:49:22;151257.28;;;15.81;37.06
33422;BME280;19763;55.798;37.782;2023-04-09T10:59:36;151189.03;;;15.53;37.92
33422;BME280;19763;55.798;37.782;2023-04-09T11:02:07;151149.09;;;15.38;37.52
33422;BME280;19763;55.798;37.782;2023-04-09T11:07:44;151084.72;;;15.12;38.20
33422;BME280;19763;55.798;37.782;2023-04-09T11:10:11;151008.84;;;14.81;38.49
33422;BME280;19763;55.798;37.782;2023-04-09T11:12:37;151084.72;;;15.12;38.11
33422;BME280;19763;55.798;37.782;2023-04-09T11:15:03;151044.84;;;14.96;37.94
33422;BME280;19763;55.798;37.782;2023-04-09T11:17:30;150963.78;;;14.63;38.75
33422;BME280;19763;55.798;37.782;2023-04-09T11:20:01;151039.72;;;14.94;38.52
33422;BME280;19763;55.798;37.782;2023-04-09T11:22:28;151097.63;;;15.17;38.14
33422;BME280;19763;55.798;37.782;2023-04-09T11:24:54;151046.19;;;14.96;37.81
33422;BME280;19763;55.798;37.782;2023-04-09T11:27:19;151082.19;;;15.11;38.46
33422;BME280;19763;55.798;37.782;2023-04-09T11:29:46;151120.75;;;15.26;39.01
33422;BME280;19763;55.798;37.782;2023-04-09T11:32:11;151129.78;;;15.30;38.21
33422;BME280;19763;55.798;37.782;2023-04-09T11:34:37;151104.06;;;15.19;38.21
33422;BME280;19763;55.798;37.782;2023-04-09T11:37:03;151128.53;;;15.29;37.73
33422;BME280;19763;55.798;37.782;2023-04-09T11:39:36;151133.66;;;15.31;38.55
33422;BME280;19763;55.798;37.782;2023-04-09T11:42:01;151138.84;;;15.33;37.65
33422;BME280;19763;55.798;37.782;2023-04-09T11:44:27;151150.41;;;15.38;37.66
33422;BME280;19763;55.798;37.782;2023-04-09T11:46:53;151073.16;;;15.07;38.11
33422;BME280;19763;55.798;37.782;2023-04-09T11:49:19;151059.00;;;15.01;38.10
33422;BME280;19763;55.798;37.782;2023-04-09T11:51:45;151092.50;;;15.15;38.53
33422;BME280;19763;55.798;37.782;2023-04-09T11:54:11;151060.28;;;15.02;38.17
33422;BME280;19763;55.798;37.782;2023-04-09T11:56:36;151110.50;;;15.22;37.90
33422;BME280;19763;55.798;37.782;2023-04-09T11:59:02;151110.50;;;15.22;38.69
33422;BME280;19763;55.798;37.782;2023-04-09T12:01:32;151145.22;;;15.36;38.48
33422;BME280;19763;55.798;37.782;2023-04-09T12:03:58;151059.00;;;15.01;37.93
33422;BME280;19763;55.798;37.782;2023-04-09T12:06:25;151066.72;;;15.05;38.44
33422;BME280;19763;55.798;37.782;2023-04-09T12:09:00;151119.50;;;15.26;38.29
33422;BME280;19763;55.798;37.782;2023-04-09T12:11:28;151122.09;;;15.27;37.99
33422;BME280;19763;55.798;37.782;2023-04-09T12:14:00;151079.63;;;15.10;37.64
33422;BME280;19763;55.798;37.782;2023-04-09T12:16:35;150968.97;;;14.65;37.87
33422;BME280;19763;55.798;37.782;2023-04-09T12:19:07;150918.75;;;14.45;39.38
33422;BME280;19763;55.798;37.782;2023-04-09T12:21:52;151029.44;;;14.90;39.02
33422;BME280;19763;55.798;37.782;2023-04-09T12:24:26;151038.41;;;14.93;38.32
33422;BME280;19763;55.798;37.782;2023-04-09T12:26:52;150970.25;;;14.66;38.68
33422;BME280;19763;55.798;37.782;2023-04-09T12:29:19;150997.28;;;14.77;37.88
33422;BME280;19763;55.798;37.782;2023-04-09T12:31:46;150950.91;;;14.58;38.60
33422;BME280;19763;55.798;37.782;2023-04-09T12:34:12;150948.34;;;14.57;39.01
33422;BME280;19763;55.798;37.782;2023-04-09T12:36:39;150939.34;;;14.54;38.79
33422;BME280;19763;55.798;37.782;2023-04-09T12:39:07;150974.09;;;14.67;39.17
33422;BME280;19763;55.798;37.782;2023-04-09T12:41:32;151033.28;;;14.91;38.97
33422;BME280;19763;55.798;37.782;2023-04-09T12:43:58;150968.97;;;14.65;39.28
33422;BME280;19763;55.798;37.782;2023-04-09T12:46:24;150986.97;;;14.73;39.03
33422;BME280;19763;55.798;37.782;2023-04-09T12:48:51;151010.09;;;14.82;38.55
33422;BME280;19763;55.798;37.782;2023-04-09T12:51:17;151041.00;;;14.94;38.46
33422;BME280;19763;55.798;37.782;2023-04-09T12:53:42;151043.59;;;14.95;38.94
33422;BME280;19763;55.798;37.782;2023-04-09T12:56:08;151007.56;;;14.81;38.46
33422;BME280;19763;55.798;37.782;2023-04-09T12:58:34;151011.44;;;14.82;38.93
33422;BME280;19763;55.798;37.782;2023-04-09T13:00:59;151008.84;;;14.81;38.21
33422;BME280;19763;55.798;37.782;2023-04-09T13:03:25;150936.75;;;14.53;39.00
33422;BME280;19763;55.798;37.782;2023-04-09T13:05:51;150934.19;;;14.52;38.45
33422;BME280;19763;55.798;37.782;2023-04-09T13:08:17;150898.16;;;14.37;39.39
33422;BME280;19763;55.798;37.782;2023-04-09T13:10:43;150899.44;;;14.38;39.86
33422;BME280;19763;55.798;37.782;2023-04-09T13:13:09;150940.63;;;14.54;39.43